Clyde, Texas
Current Conditions -  °F | °C
As of 4:52 AM on Friday 19 Dec 2014 (Local Time) from KABI Reporting Station
Haze Haze  
Wind Chill: 37°   Ceiling: 300
Heat Index: 42°   Visibility: 2mi
Dew Point: 41°   Wind: 9mph
Humidity: 96%   Direction: 360°N
Pressure: 30.15"   Gusts: NA
Location:  32.41°N, 99.49°W
Report Text: KABI 191052Z 36008KT 2SM BR OVC003 06/05 A3015 RMK AO2 SLP205 T00560050
Loading
Personal Weather Stations






























Interactive Weather Map New forecast layout! Learn more

10-Day Weather Forecast

Advertisements
Track Severe Weather on mobile